Time;durP1;ratioP1;P1;durP2;ratioP2;P2;SDS_P1;SDS_P2;PMS_P1;PMS_P2;Temp;Humidity;BMP_temperature;BMP_pressure;BME280_temperature;BME280_humidity;BME280_pressure;Samples;Min_cycle;Max_cycle;Signal;HPM_P1;HPM_P2
2021/08/30 00:01:32;;;;;;;20.25;14.55;;;12.60;99.90;;;;;;4987975;28;20205;-68
2021/08/30 00:04:00;;;;;;;20.05;12.93;;;12.70;99.90;;;;;;4982863;28;20255;-69
2021/08/30 00:06:27;;;;;;;18.00;15.70;;;12.60;99.90;;;;;;4984566;28;20205;-68
2021/08/30 00:08:54;;;;;;;16.13;13.02;;;12.60;99.90;;;;;;4988265;28;20602;-68
2021/08/30 00:11:21;;;;;;;21.75;15.45;;;12.60;99.90;;;;;;4993040;28;20202;-68
2021/08/30 00:13:48;;;;;;;16.90;15.10;;;12.50;99.90;;;;;;4987897;28;20224;-68
2021/08/30 00:16:16;;;;;;;16.70;13.02;;;12.50;99.90;;;;;;4995842;28;20219;-68
2021/08/30 00:18:44;;;;;;;19.35;15.13;;;12.40;99.90;;;;;;4980602;28;20405;-68
2021/08/30 00:21:11;;;;;;;17.80;15.27;;;12.40;99.90;;;;;;4977845;28;20488;-69
2021/08/30 00:23:38;;;;;;;19.67;15.32;;;12.50;99.90;;;;;;4986467;28;20204;-69
2021/08/30 00:26:05;;;;;;;22.02;15.85;;;12.40;99.90;;;;;;4986375;28;20521;-68
2021/08/30 00:28:32;;;;;;;19.50;16.35;;;12.30;99.90;;;;;;4997484;28;20489;-69
2021/08/30 00:30:59;;;;;;;25.77;18.27;;;12.20;99.90;;;;;;4997252;28;20211;-69
2021/08/30 00:33:27;;;;;;;22.23;17.73;;;12.20;99.90;;;;;;4985484;28;20274;-69
2021/08/30 00:35:54;;;;;;;25.67;16.75;;;12.20;99.90;;;;;;4990132;28;20229;-68
2021/08/30 00:38:21;;;;;;;22.02;18.55;;;12.20;99.90;;;;;;4986396;28;20581;-69
2021/08/30 00:40:48;;;;;;;27.52;21.00;;;12.30;99.90;;;;;;4998637;28;20267;-68
2021/08/30 00:43:14;;;;;;;25.83;18.52;;;12.20;99.90;;;;;;4979641;28;20244;-68
2021/08/30 00:45:42;;;;;;;26.45;19.75;;;12.20;99.90;;;;;;4979308;28;20217;-68
2021/08/30 00:48:09;;;;;;;24.33;19.38;;;12.30;99.90;;;;;;4996293;28;20228;-68
2021/08/30 00:50:36;;;;;;;23.70;18.52;;;12.40;99.90;;;;;;4989730;28;20493;-67
2021/08/30 00:53:04;;;;;;;24.83;18.55;;;12.50;99.90;;;;;;4982819;28;20207;-69
2021/08/30 00:55:33;;;;;;;24.02;18.73;;;12.60;99.90;;;;;;4989159;28;20259;-68
2021/08/30 00:58:01;;;;;;;21.58;17.48;;;12.40;99.90;;;;;;4979899;28;20233;-68
2021/08/30 01:00:28;;;;;;;22.13;17.70;;;12.50;99.90;;;;;;4998490;28;20564;-68
2021/08/30 01:02:55;;;;;;;24.75;19.00;;;12.40;99.90;;;;;;4984826;28;20232;-67
2021/08/30 01:05:23;;;;;;;29.83;19.48;;;12.50;99.90;;;;;;4992180;28;20209;-68
2021/08/30 01:07:56;;;;;;;33.90;20.55;;;12.40;99.90;;;;;;4988524;28;20592;-68
2021/08/30 01:10:51;;;;;;;28.52;17.15;;;12.40;99.90;;;;;;4994617;28;20209;-68
2021/08/30 01:13:33;;;;;;;27.73;20.23;;;12.50;99.90;;;;;;4988845;28;20239;-69
2021/08/30 01:16:07;;;;;;;25.67;18.55;;;12.60;99.90;;;;;;4986582;28;20244;-67
2021/08/30 01:18:35;;;;;;;20.55;17.42;;;12.60;99.90;;;;;;4978669;28;20212;-70
2021/08/30 01:21:25;;;;;;;24.00;18.48;;;12.60;99.90;;;;;;4991312;28;20391;-69
2021/08/30 01:24:10;;;;;;;23.60;17.73;;;12.50;99.90;;;;;;4983558;28;20554;-70
2021/08/30 01:26:47;;;;;;;24.10;17.95;;;12.60;99.90;;;;;;4984870;28;20276;-69
2021/08/30 01:29:43;;;;;;;27.48;17.70;;;12.60;99.90;;;;;;4996054;28;20231;-69
2021/08/30 01:32:23;;;;;;;26.48;18.55;;;12.60;99.90;;;;;;4977912;28;20312;-68
2021/08/30 01:34:51;;;;;;;22.50;17.00;;;12.60;99.90;;;;;;4995828;28;20301;-69
2021/08/30 01:37:19;;;;;;;23.15;17.77;;;12.70;99.90;;;;;;4996290;28;20550;-68
2021/08/30 01:39:47;;;;;;;26.02;17.67;;;12.80;99.90;;;;;;4990393;28;20440;-68
2021/08/30 01:42:14;;;;;;;23.95;18.30;;;12.80;99.90;;;;;;4991671;28;20211;-68
2021/08/30 01:44:42;;;;;;;24.33;17.85;;;12.70;99.90;;;;;;4997131;28;20257;-68
2021/08/30 01:47:10;;;;;;;22.58;18.30;;;12.70;99.90;;;;;;4997233;28;20209;-68
2021/08/30 01:49:37;;;;;;;25.50;16.17;;;12.80;99.90;;;;;;4994344;28;20270;-68
2021/08/30 01:52:07;;;;;;;22.73;16.85;;;12.80;99.90;;;;;;4997594;28;20208;-68
2021/08/30 01:54:35;;;;;;;22.85;16.38;;;12.80;99.90;;;;;;4994014;28;20198;-68
2021/08/30 01:57:02;;;;;;;24.58;18.25;;;12.80;99.90;;;;;;4983392;28;20550;-68
2021/08/30 02:02:16;;;;;;;20.27;15.98;;;12.50;99.90;;;;;;4983323;28;20244;-70
2021/08/30 02:04:43;;;;;;;29.88;18.67;;;12.40;99.90;;;;;;4984039;28;20519;-69
2021/08/30 02:07:11;;;;;;;28.48;20.10;;;12.50;99.90;;;;;;4984561;28;20224;-69
2021/08/30 02:09:37;;;;;;;24.40;18.85;;;12.20;99.90;;;;;;4987947;28;20233;-69
2021/08/30 02:12:05;;;;;;;29.13;18.92;;;12.30;99.90;;;;;;4983719;28;20519;-69
2021/08/30 02:14:32;;;;;;;21.90;17.80;;;12.40;99.90;;;;;;4984306;28;20722;-69
2021/08/30 02:17:04;;;;;;;27.17;18.35;;;12.50;99.90;;;;;;4991083;28;20198;-70
2021/08/30 02:19:38;;;;;;;24.98;17.23;;;12.40;99.90;;;;;;4981916;28;20292;-69
2021/08/30 02:22:29;;;;;;;23.60;18.10;;;12.30;99.90;;;;;;4977786;28;20324;-69
2021/08/30 02:25:02;;;;;;;24.13;16.55;;;12.40;99.90;;;;;;4983716;28;20205;-69
2021/08/30 02:27:59;;;;;;;24.00;17.35;;;12.60;99.90;;;;;;4983568;28;20205;-69
2021/08/30 02:30:36;;;;;;;22.27;16.80;;;12.60;99.90;;;;;;4991232;28;20239;-69
2021/08/30 02:33:07;;;;;;;22.00;15.80;;;12.70;99.90;;;;;;4984554;28;20202;-69
2021/08/30 02:35:37;;;;;;;24.40;17.08;;;12.70;99.90;;;;;;4981925;28;20326;-68
2021/08/30 02:38:04;;;;;;;23.48;17.27;;;12.80;99.90;;;;;;4989570;28;20244;-69
2021/08/30 02:40:33;;;;;;;22.02;15.98;;;12.70;99.90;;;;;;4982826;28;20208;-69
2021/08/30 02:43:01;;;;;;;18.55;15.40;;;12.70;99.90;;;;;;4977344;28;20202;-70
2021/08/30 02:45:29;;;;;;;23.58;16.90;;;12.60;99.90;;;;;;4976864;28;20503;-70
2021/08/30 02:47:58;;;;;;;19.00;15.07;;;13.00;99.90;;;;;;4981665;28;20248;-69
2021/08/30 02:50:26;;;;;;;24.73;17.55;;;12.90;99.90;;;;;;4996572;28;20231;-69
2021/08/30 02:52:54;;;;;;;26.23;14.55;;;13.00;99.90;;;;;;4982489;28;20201;-69
2021/08/30 02:55:21;;;;;;;17.50;14.98;;;13.10;99.90;;;;;;4996578;28;20250;-68
2021/08/30 02:57:49;;;;;;;21.50;16.38;;;13.10;99.90;;;;;;4993846;28;20209;-68
2021/08/30 03:00:17;;;;;;;19.88;16.85;;;13.10;99.90;;;;;;4976605;28;20209;-68
2021/08/30 03:02:46;;;;;;;22.55;17.83;;;13.10;99.90;;;;;;4989076;28;20213;-68
2021/08/30 03:05:14;;;;;;;21.95;16.10;;;12.90;99.90;;;;;;4983609;28;20239;-68
2021/08/30 03:07:42;;;;;;;28.73;20.10;;;13.00;99.90;;;;;;4996374;28;20209;-69
2021/08/30 03:10:09;;;;;;;24.80;17.73;;;13.00;99.90;;;;;;4995383;28;20228;-68
2021/08/30 03:12:41;;;;;;;23.23;18.60;;;12.90;99.90;;;;;;4984596;28;20261;-68
2021/08/30 03:15:14;;;;;;;18.95;16.70;;;12.90;99.90;;;;;;4982869;28;20511;-68
2021/08/30 03:17:44;;;;;;;22.50;16.70;;;13.00;99.90;;;;;;4996555;28;20205;-69
2021/08/30 03:20:25;;;;;;;27.17;17.67;;;13.20;99.90;;;;;;4992716;28;20284;-68
2021/08/30 03:22:53;;;;;;;20.85;17.35;;;13.10;99.90;;;;;;4987344;28;20245;-68
2021/08/30 03:25:24;;;;;;;21.42;15.35;;;12.90;99.90;;;;;;4985653;28;20197;-67
2021/08/30 03:27:52;;;;;;;17.88;15.18;;;12.70;99.90;;;;;;4986140;28;20508;-70
2021/08/30 03:30:19;;;;;;;23.83;17.35;;;13.10;99.90;;;;;;4980718;28;20218;-69
2021/08/30 03:32:47;;;;;;;20.65;16.30;;;12.70;99.90;;;;;;4981309;28;20252;-69
2021/08/30 03:35:15;;;;;;;21.80;16.30;;;12.60;99.90;;;;;;4985855;28;20201;-68
2021/08/30 03:37:44;;;;;;;19.85;16.15;;;12.60;99.90;;;;;;4985960;28;20229;-68
2021/08/30 03:40:12;;;;;;;20.73;16.33;;;12.60;99.90;;;;;;4995725;28;20268;-68
2021/08/30 03:42:42;;;;;;;27.52;19.60;;;12.40;99.90;;;;;;4983687;28;20280;-67
2021/08/30 03:45:11;;;;;;;25.88;17.80;;;12.10;99.90;;;;;;4996379;28;20346;-68
2021/08/30 03:47:39;;;;;;;26.42;17.00;;;12.30;99.90;;;;;;4993734;28;20204;-68
2021/08/30 03:50:07;;;;;;;27.40;18.58;;;12.30;99.90;;;;;;4995577;28;20295;-68
2021/08/30 03:52:37;;;;;;;23.17;18.65;;;12.30;99.90;;;;;;4993626;28;20375;-68
2021/08/30 03:55:07;;;;;;;30.02;17.63;;;12.20;99.90;;;;;;4977050;28;20205;-69
2021/08/30 03:57:36;;;;;;;25.27;18.00;;;12.20;99.90;;;;;;4989937;28;20499;-69
2021/08/30 04:00:06;;;;;;;27.00;18.58;;;11.90;99.90;;;;;;4993983;28;20205;-69
2021/08/30 04:02:34;;;;;;;29.38;21.48;;;12.30;99.90;;;;;;4982812;28;20260;-69
2021/08/30 04:05:02;;;;;;;22.15;17.25;;;12.30;99.90;;;;;;4983691;28;20260;-69
2021/08/30 04:07:30;;;;;;;20.95;15.07;;;12.70;99.90;;;;;;4982919;28;20205;-68
2021/08/30 04:09:58;;;;;;;22.42;15.23;;;12.60;99.90;;;;;;4989396;28;20229;-69
2021/08/30 04:12:26;;;;;;;21.70;15.63;;;12.50;99.90;;;;;;4985947;28;20209;-69
2021/08/30 04:14:54;;;;;;;23.95;16.45;;;12.50;99.90;;;;;;4986447;28;20275;-69
2021/08/30 04:17:21;;;;;;;31.02;17.75;;;12.60;99.90;;;;;;4996252;28;20426;-70
2021/08/30 04:19:48;;;;;;;23.02;15.10;;;12.70;99.90;;;;;;4998292;28;20205;-69
2021/08/30 04:22:15;;;;;;;21.88;16.15;;;12.80;99.90;;;;;;4997177;28;20201;-70
2021/08/30 04:24:42;;;;;;;23.52;16.02;;;12.90;99.90;;;;;;4987014;28;20226;-70
2021/08/30 04:27:09;;;;;;;18.90;15.00;;;13.20;99.90;;;;;;4995189;28;20283;-69
2021/08/30 04:29:36;;;;;;;20.45;15.00;;;13.40;99.90;;;;;;4984682;28;20232;-70
2021/08/30 04:32:04;;;;;;;17.15;12.73;;;13.50;99.90;;;;;;4988445;28;20201;-69
2021/08/30 04:34:32;;;;;;;19.15;12.70;;;13.50;99.90;;;;;;4992455;28;20250;-69
2021/08/30 04:36:59;;;;;;;18.92;12.60;;;13.30;99.90;;;;;;4986565;28;20308;-69
2021/08/30 04:39:26;;;;;;;18.23;13.30;;;13.20;99.90;;;;;;4987856;28;20245;-71
2021/08/30 04:41:53;;;;;;;14.52;12.38;;;13.00;99.90;;;;;;4990338;28;20566;-69
2021/08/30 04:44:20;;;;;;;16.25;13.25;;;13.00;99.90;;;;;;4998459;28;20204;-69
2021/08/30 04:46:47;;;;;;;19.85;14.95;;;13.10;99.90;;;;;;4984628;28;20268;-69
2021/08/30 04:49:14;;;;;;;17.45;14.20;;;13.10;99.90;;;;;;4998240;28;20230;-68
2021/08/30 04:51:41;;;;;;;13.63;12.10;;;13.30;99.90;;;;;;4984673;28;20318;-69
2021/08/30 04:54:08;;;;;;;21.00;13.15;;;13.30;99.90;;;;;;4998262;28;20197;-69
2021/08/30 04:56:35;;;;;;;16.42;13.73;;;13.40;99.90;;;;;;4984841;28;20268;-68
2021/08/30 04:59:02;;;;;;;16.10;12.30;;;13.60;99.90;;;;;;4998186;28;20252;-70
2021/08/30 05:01:29;;;;;;;16.08;13.05;;;13.70;99.90;;;;;;4988847;28;20252;-69
2021/08/30 05:03:58;;;;;;;15.25;12.27;;;13.70;99.90;;;;;;4978351;28;20199;-69
2021/08/30 05:06:25;;;;;;;17.40;13.25;;;13.80;99.90;;;;;;4982921;28;20393;-69
2021/08/30 05:08:52;;;;;;;14.75;13.23;;;14.00;99.90;;;;;;4995400;28;20209;-69
2021/08/30 05:11:19;;;;;;;17.75;11.35;;;14.20;99.90;;;;;;4986347;28;20374;-69
2021/08/30 05:13:46;;;;;;;24.70;12.90;;;14.10;99.90;;;;;;4993520;28;20261;-69
2021/08/30 05:16:13;;;;;;;14.25;11.27;;;14.20;99.90;;;;;;4990216;28;20419;-69
2021/08/30 05:18:41;;;;;;;11.52;9.93;;;14.30;99.90;;;;;;4991694;28;20209;-70
2021/08/30 05:21:08;;;;;;;20.25;12.43;;;14.20;99.90;;;;;;4989343;28;20197;-69
2021/08/30 05:23:40;;;;;;;13.63;10.93;;;14.30;99.90;;;;;;4988080;28;20226;-69
2021/08/30 05:26:07;;;;;;;11.02;9.15;;;14.50;99.90;;;;;;4987876;28;20201;-69
2021/08/30 05:28:34;;;;;;;12.15;9.95;;;14.60;99.90;;;;;;4989661;28;20210;-69
2021/08/30 05:31:01;;;;;;;13.15;10.50;;;14.70;99.90;;;;;;4984032;28;20298;-69
2021/08/30 05:33:28;;;;;;;15.48;9.75;;;14.80;99.90;;;;;;4987285;28;20202;-69
2021/08/30 05:35:56;;;;;;;11.60;8.90;;;14.80;99.90;;;;;;4979345;28;20239;-68
2021/08/30 05:38:23;;;;;;;11.52;10.25;;;14.70;99.90;;;;;;4993693;28;20206;-69
2021/08/30 05:40:50;;;;;;;10.23;9.23;;;15.00;99.90;;;;;;4983952;28;20210;-69
2021/08/30 05:43:17;;;;;;;14.25;9.93;;;15.10;99.90;;;;;;4997870;28;20241;-69
2021/08/30 05:45:44;;;;;;;10.75;8.98;;;15.50;99.90;;;;;;4988104;28;20201;-69
2021/08/30 05:48:11;;;;;;;12.18;9.45;;;15.60;99.90;;;;;;4995986;28;20220;-69
2021/08/30 05:50:38;;;;;;;9.63;8.50;;;15.80;99.90;;;;;;4993536;28;20225;-69
2021/08/30 05:53:05;;;;;;;16.67;7.82;;;15.80;99.90;;;;;;4978922;28;20226;-69
2021/08/30 05:55:32;;;;;;;11.45;9.02;;;16.00;99.90;;;;;;4986094;28;20531;-70
2021/08/30 05:57:59;;;;;;;9.38;8.45;;;16.00;99.90;;;;;;4989255;28;20202;-70
2021/08/30 06:00:26;;;;;;;8.63;7.20;;;15.80;99.90;;;;;;4988961;28;20235;-70
2021/08/30 06:02:53;;;;;;;12.70;8.77;;;15.90;99.90;;;;;;4988921;28;20198;-70
2021/08/30 06:05:21;;;;;;;9.13;7.80;;;16.10;99.90;;;;;;4977660;28;20207;-69
2021/08/30 06:07:48;;;;;;;10.70;7.45;;;16.10;99.90;;;;;;4982470;28;20245;-70
2021/08/30 06:10:16;;;;;;;11.30;7.90;;;16.30;99.90;;;;;;4981984;28;20258;-70
2021/08/30 06:12:43;;;;;;;9.27;6.85;;;16.20;99.90;;;;;;4984840;28;20494;-70
2021/08/30 06:15:10;;;;;;;7.72;6.93;;;16.00;99.90;;;;;;4983178;28;20241;-70
2021/08/30 06:17:37;;;;;;;14.57;9.23;;;16.00;99.90;;;;;;4981926;28;20254;-69
2021/08/30 06:20:05;;;;;;;9.02;8.13;;;15.90;99.90;;;;;;4981946;28;20226;-71
2021/08/30 06:22:33;;;;;;;12.95;8.27;;;16.20;99.90;;;;;;4978769;28;20413;-69
2021/08/30 06:25:00;;;;;;;10.80;8.57;;;16.10;99.90;;;;;;4981218;28;20237;-71
2021/08/30 06:27:27;;;;;;;10.73;8.68;;;16.20;99.90;;;;;;4979012;28;20494;-70
2021/08/30 06:29:54;;;;;;;11.90;9.25;;;16.30;99.90;;;;;;4981795;28;20249;-70
2021/08/30 06:32:21;;;;;;;12.02;10.43;;;16.30;99.90;;;;;;4978671;28;20208;-69
2021/08/30 06:34:48;;;;;;;12.05;8.60;;;16.30;99.90;;;;;;4982482;28;20204;-69
2021/08/30 06:37:15;;;;;;;10.40;9.20;;;16.50;99.90;;;;;;4979921;28;20219;-70
2021/08/30 06:39:42;;;;;;;10.00;8.85;;;16.60;99.90;;;;;;4991322;28;20212;-70
2021/08/30 06:42:10;;;;;;;11.53;9.43;;;16.80;99.90;;;;;;4978579;28;20200;-68
2021/08/30 06:44:37;;;;;;;12.00;9.73;;;16.80;99.90;;;;;;4996862;28;20445;-70
2021/08/30 06:47:04;;;;;;;11.83;9.77;;;17.10;99.90;;;;;;4997853;28;20496;-69
2021/08/30 06:49:31;;;;;;;9.70;8.67;;;17.20;99.90;;;;;;4993591;28;20487;-70
2021/08/30 06:51:58;;;;;;;12.27;8.83;;;17.50;99.90;;;;;;4978131;28;20417;-70
2021/08/30 06:54:25;;;;;;;9.40;8.20;;;17.60;99.90;;;;;;4983658;28;20440;-70
2021/08/30 06:56:52;;;;;;;9.37;8.47;;;17.70;99.90;;;;;;4977462;28;20449;-69
2021/08/30 06:59:19;;;;;;;9.80;8.30;;;18.00;99.90;;;;;;4977893;28;20409;-69
2021/08/30 07:01:46;;;;;;;12.57;8.17;;;18.10;99.90;;;;;;4983141;28;20558;-70
2021/08/30 07:04:13;;;;;;;8.23;7.07;;;18.20;99.90;;;;;;4988337;28;20468;-70
2021/08/30 07:06:40;;;;;;;9.87;7.20;;;18.30;99.90;;;;;;4983168;28;20912;-70
2021/08/30 07:09:07;;;;;;;9.27;7.10;;;18.50;99.90;;;;;;4982688;28;20633;-69
2021/08/30 07:11:35;;;;;;;8.80;7.90;;;18.50;99.90;;;;;;4976424;28;20500;-69
2021/08/30 07:14:02;;;;;;;7.50;6.70;;;18.50;99.90;;;;;;4978952;28;20449;-70
2021/08/30 07:16:29;;;;;;;6.97;6.17;;;18.30;99.90;;;;;;4980889;28;20458;-70
2021/08/30 07:18:56;;;;;;;8.30;7.50;;;18.30;99.90;;;;;;4981687;28;20439;-69
2021/08/30 07:21:24;;;;;;;9.07;7.83;;;18.50;99.90;;;;;;4982434;28;20420;-70
2021/08/30 07:23:52;;;;;;;8.03;7.33;;;18.70;99.90;;;;;;4982971;28;20438;-68
2021/08/30 07:26:19;;;;;;;7.70;7.00;;;19.00;99.90;;;;;;4988648;28;20409;-71
2021/08/30 07:28:46;;;;;;;9.00;8.10;;;19.00;99.90;;;;;;4983702;28;20448;-71
2021/08/30 07:31:14;;;;;;;8.40;7.57;;;19.00;99.90;;;;;;4985175;28;20821;-70
2021/08/30 07:33:42;;;;;;;8.40;7.00;;;19.20;99.90;;;;;;4979429;28;20490;-71
2021/08/30 07:36:09;;;;;;;7.90;7.10;;;19.10;99.90;;;;;;4976464;28;20447;-70
2021/08/30 07:38:36;;;;;;;7.13;6.30;;;19.20;99.90;;;;;;4988696;28;20417;-70
2021/08/30 07:41:04;;;;;;;7.53;6.80;;;18.90;99.90;;;;;;4996151;28;20417;-69
2021/08/30 07:43:31;;;;;;;8.00;6.90;;;18.60;99.90;;;;;;4996193;28;20422;-70
2021/08/30 07:46:00;;;;;;;6.97;5.53;;;18.40;99.90;;;;;;4991999;28;20743;-69
2021/08/30 07:48:27;;;;;;;7.60;6.80;;;18.40;99.90;;;;;;4984351;28;20771;-69
2021/08/30 07:50:55;;;;;;;11.73;6.43;;;18.40;99.90;;;;;;4994798;28;20482;-71
2021/08/30 07:53:26;;;;;;;9.30;6.40;;;18.40;99.90;;;;;;4999398;28;20435;-69
2021/08/30 07:55:55;;;;;;;8.93;6.70;;;18.30;99.90;;;;;;4989063;28;20442;-70
2021/08/30 07:58:23;;;;;;;6.47;5.40;;;18.20;99.90;;;;;;4984279;28;20413;-69
2021/08/30 08:00:51;;;;;;;6.57;5.97;;;18.20;99.90;;;;;;4979388;28;20430;-71
2021/08/30 08:03:18;;;;;;;7.30;6.67;;;17.80;99.90;;;;;;4980292;28;20486;-70
2021/08/30 08:05:46;;;;;;;16.37;6.57;;;17.60;99.90;;;;;;4991201;28;20964;-68
2021/08/30 08:08:13;;;;;;;8.73;7.73;;;17.40;99.90;;;;;;4989927;28;20478;-69
2021/08/30 08:10:40;;;;;;;12.60;8.00;;;17.10;99.90;;;;;;4990234;28;20487;-69
2021/08/30 08:13:07;;;;;;;7.33;6.63;;;16.80;99.90;;;;;;4989621;28;20435;-69
2021/08/30 08:15:34;;;;;;;10.23;7.20;;;16.90;99.90;;;;;;4984329;28;20453;-68
2021/08/30 08:18:01;;;;;;;9.13;7.07;;;17.10;99.90;;;;;;4998525;28;20804;-71
2021/08/30 08:20:31;;;;;;;8.27;7.23;;;17.20;99.90;;;;;;4992674;28;20463;-69
2021/08/30 08:23:03;;;;;;;8.70;6.93;;;16.90;99.90;;;;;;4984113;28;20458;-70
2021/08/30 08:25:31;;;;;;;6.87;6.20;;;16.90;99.90;;;;;;4984278;28;20446;-68
2021/08/30 08:28:03;;;;;;;8.13;7.33;;;17.00;99.90;;;;;;4992261;28;20514;-70
2021/08/30 08:30:31;;;;;;;8.23;6.83;;;17.00;99.90;;;;;;4981519;28;20472;-69
2021/08/30 08:32:58;;;;;;;9.23;8.30;;;17.00;99.90;;;;;;4986425;28;20423;-69
2021/08/30 08:35:25;;;;;;;10.80;9.53;;;17.10;99.90;;;;;;4998845;28;20671;-70
2021/08/30 08:37:52;;;;;;;9.37;7.87;;;17.10;99.90;;;;;;4997233;28;20432;-70
2021/08/30 08:40:19;;;;;;;11.93;9.30;;;17.20;99.90;;;;;;4999458;28;20469;-69
2021/08/30 08:42:46;;;;;;;11.30;8.77;;;17.10;99.90;;;;;;4998656;28;20417;-69
2021/08/30 08:45:15;;;;;;;10.00;7.90;;;17.20;99.90;;;;;;4996995;28;20438;-69
2021/08/30 08:47:43;;;;;;;9.20;7.97;;;17.40;99.90;;;;;;4997738;28;20446;-69
2021/08/30 08:50:13;;;;;;;10.07;8.87;;;17.50;99.90;;;;;;4990386;28;20478;-69
2021/08/30 08:52:43;;;;;;;10.27;9.27;;;17.80;99.90;;;;;;4980131;28;20463;-68
2021/08/30 08:55:14;;;;;;;11.60;9.40;;;17.90;99.90;;;;;;4991909;28;20631;-70
2021/08/30 08:57:41;;;;;;;8.83;7.90;;;18.00;99.90;;;;;;4984404;28;20771;-68
2021/08/30 09:00:14;;;;;;;8.50;7.60;;;17.90;99.90;;;;;;4979680;28;20484;-69
2021/08/30 09:02:41;;;;;;;10.60;8.13;;;17.80;99.90;;;;;;4991218;28;20451;-69
2021/08/30 09:05:23;;;;;;;12.50;8.60;;;17.90;99.90;;;;;;4986424;28;20438;-69
2021/08/30 09:07:51;;;;;;;9.47;7.00;;;17.80;99.90;;;;;;4990057;28;20468;-69
2021/08/30 09:10:23;;;;;;;8.30;7.60;;;17.90;99.90;;;;;;4980427;28;20454;-69
2021/08/30 09:12:51;;;;;;;13.33;7.80;;;17.90;99.90;;;;;;4984601;28;20631;-70
2021/08/30 09:15:26;;;;;;;7.70;6.20;;;17.60;99.90;;;;;;4983787;28;20468;-69
2021/08/30 09:17:55;;;;;;;9.17;8.00;;;17.40;99.90;;;;;;4984590;28;20660;-69
2021/08/30 09:20:25;;;;;;;6.63;5.93;;;17.50;99.90;;;;;;4984752;28;20422;-69
2021/08/30 09:22:53;;;;;;;8.37;7.57;;;17.90;99.90;;;;;;4982726;28;20597;-70
2021/08/30 09:25:20;;;;;;;8.43;7.53;;;18.00;99.90;;;;;;4977273;28;20418;-68
2021/08/30 09:27:51;;;;;;;6.97;6.37;;;18.20;99.90;;;;;;4984889;28;20443;-69
2021/08/30 09:30:24;;;;;;;7.40;6.70;;;18.20;99.90;;;;;;4982705;28;20860;-69
2021/08/30 09:32:52;;;;;;;9.60;8.13;;;18.50;99.90;;;;;;4983428;28;20451;-69
2021/08/30 09:35:20;;;;;;;11.00;8.43;;;18.40;99.90;;;;;;4980792;28;20422;-70
2021/08/30 09:37:48;;;;;;;9.03;7.47;;;18.40;99.90;;;;;;4987092;28;20489;-69
2021/08/30 09:40:19;;;;;;;7.40;6.60;;;18.50;99.90;;;;;;4997634;28;20516;-69
2021/08/30 09:42:49;;;;;;;8.33;7.43;;;18.70;99.90;;;;;;4985748;28;20510;-69
2021/08/30 09:45:20;;;;;;;7.70;6.40;;;18.90;99.90;;;;;;4996848;28;20478;-69
2021/08/30 09:48:07;;;;;;;6.30;5.70;;;19.00;99.90;;;;;;4998304;28;20457;-69
2021/08/30 09:50:43;;;;;;;7.17;6.50;;;19.20;99.90;;;;;;4996549;28;20453;-68
2021/08/30 09:53:10;;;;;;;7.73;7.00;;;19.40;99.90;;;;;;4987693;28;21052;-68
2021/08/30 09:55:37;;;;;;;6.83;5.87;;;19.50;99.90;;;;;;4988678;28;20478;-70
2021/08/30 09:58:08;;;;;;;9.67;6.20;;;19.30;99.90;;;;;;4982324;28;20435;-69
2021/08/30 10:00:35;;;;;;;10.10;6.30;;;19.20;99.90;;;;;;4985246;28;20513;-69
2021/08/30 10:03:03;;;;;;;6.67;6.03;;;19.20;99.90;;;;;;4987209;28;20417;-69
2021/08/30 10:05:31;;;;;;;8.63;6.87;;;18.90;99.90;;;;;;4983717;28;20723;-68
2021/08/30 10:08:01;;;;;;;6.20;5.60;;;18.40;99.90;;;;;;4980446;28;20628;-69
2021/08/30 10:10:29;;;;;;;7.53;6.23;;;18.10;99.90;;;;;;4988845;28;20482;-71
2021/08/30 10:12:57;;;;;;;8.20;6.70;;;17.80;99.90;;;;;;4984523;28;20489;-69
2021/08/30 10:15:26;;;;;;;7.57;6.80;;;17.70;99.90;;;;;;4979516;28;20455;-69
2021/08/30 10:17:54;;;;;;;7.47;6.73;;;17.70;99.90;;;;;;4982247;28;20483;-69
2021/08/30 10:20:26;;;;;;;8.83;7.27;;;17.80;99.90;;;;;;4979067;28;20457;-68
2021/08/30 10:23:03;;;;;;;6.10;5.60;;;17.90;99.90;;;;;;4981895;28;20452;-72
2021/08/30 10:25:32;;;;;;;9.93;7.50;;;18.00;99.90;;;;;;4982062;28;20463;-71
2021/08/30 10:28:13;;;;;;;9.10;6.73;;;18.20;99.90;;;;;;4980830;28;20413;-69
2021/08/30 10:30:52;;;;;;;5.77;5.20;;;18.40;99.90;;;;;;4987627;28;20863;-68
2021/08/30 10:33:22;;;;;;;7.47;6.77;;;18.70;99.90;;;;;;4981129;28;20410;-69
2021/08/30 10:35:50;;;;;;;6.73;6.13;;;19.20;99.90;;;;;;4980713;28;20457;-70
2021/08/30 10:38:19;;;;;;;6.30;5.23;;;19.30;99.90;;;;;;4986081;28;20480;-69
2021/08/30 10:40:52;;;;;;;6.23;5.50;;;19.60;99.90;;;;;;4981306;28;20429;-69
2021/08/30 10:43:21;;;;;;;5.67;5.17;;;19.90;99.90;;;;;;4986220;28;20502;-70
2021/08/30 10:45:58;;;;;;;6.13;5.53;;;20.10;99.90;;;;;;4996549;28;20417;-70
2021/08/30 10:48:32;;;;;;;6.83;5.10;;;20.20;99.90;;;;;;4996670;28;20441;-68
2021/08/30 10:50:59;;;;;;;5.67;5.10;;;19.80;99.90;;;;;;4992706;28;20474;-69
2021/08/30 10:53:27;;;;;;;5.80;5.20;;;19.80;99.90;;;;;;4993705;28;20452;-70
2021/08/30 10:55:56;;;;;;;6.83;5.10;;;19.70;99.90;;;;;;4990894;28;20427;-68
2021/08/30 10:58:25;;;;;;;5.07;4.57;;;19.70;99.90;;;;;;4989825;28;20824;-70
2021/08/30 11:00:55;;;;;;;6.30;5.37;;;19.50;99.90;;;;;;4993705;28;20418;-69
2021/08/30 11:03:33;;;;;;;6.03;5.43;;;19.50;99.90;;;;;;4992683;28;20439;-70
2021/08/30 11:06:09;;;;;;;5.43;4.93;;;19.60;99.90;;;;;;4995132;28;20409;-69
2021/08/30 11:08:39;;;;;;;7.73;6.07;;;19.80;99.90;;;;;;4988550;28;20468;-70
2021/08/30 11:11:14;;;;;;;7.37;5.57;;;19.40;99.90;;;;;;4986454;28;20493;-70
2021/08/30 11:13:59;;;;;;;6.27;5.63;;;19.10;99.90;;;;;;4989772;28;20444;-70
2021/08/30 11:16:28;;;;;;;5.50;5.00;;;19.10;99.90;;;;;;4983321;28;20478;-69
2021/08/30 11:18:56;;;;;;;6.20;5.20;;;19.60;99.90;;;;;;4992510;28;20435;-69
2021/08/30 11:21:34;;;;;;;6.57;4.77;;;19.60;99.90;;;;;;4994258;28;20464;-68
2021/08/30 11:24:01;;;;;;;5.03;4.53;;;20.20;99.90;;;;;;4997590;28;20698;-69
2021/08/30 11:26:28;;;;;;;6.03;3.93;;;20.30;99.90;;;;;;5000355;28;20452;-69
2021/08/30 11:29:01;;;;;;;5.83;5.20;;;20.20;99.90;;;;;;4998719;28;20414;-70
2021/08/30 11:31:30;;;;;;;8.60;4.97;;;20.20;99.90;;;;;;4989431;28;20452;-68
2021/08/30 11:33:58;;;;;;;4.67;4.20;;;19.90;99.90;;;;;;4997113;28;20441;-69
2021/08/30 11:36:25;;;;;;;4.90;4.50;;;19.90;99.90;;;;;;4995898;28;20680;-69
2021/08/30 11:38:57;;;;;;;5.00;4.50;;;19.70;99.90;;;;;;5001809;28;20755;-69
2021/08/30 11:41:24;;;;;;;5.20;4.80;;;19.70;99.90;;;;;;5001426;28;20539;-67
2021/08/30 11:44:04;;;;;;;4.47;4.07;;;19.50;99.90;;;;;;5001024;28;20606;-70
2021/08/30 11:46:46;;;;;;;4.47;4.10;;;19.30;99.90;;;;;;4983265;28;20510;-69
2021/08/30 11:49:13;;;;;;;5.60;5.20;;;19.00;99.90;;;;;;4996013;28;20417;-69
2021/08/30 11:51:45;;;;;;;4.13;3.83;;;18.70;99.90;;;;;;5002537;28;20543;-69
2021/08/30 11:54:18;;;;;;;4.47;4.07;;;18.60;99.90;;;;;;4993714;28;20414;-70
2021/08/30 11:56:57;;;;;;;5.23;4.73;;;18.40;99.90;;;;;;4988959;28;20605;-71
2021/08/30 11:59:26;;;;;;;4.83;4.33;;;18.40;99.90;;;;;;4993547;28;20819;-69
2021/08/30 12:01:53;;;;;;;4.53;3.43;;;18.50;99.90;;;;;;4996690;28;20496;-69
2021/08/30 12:04:20;;;;;;;5.30;4.73;;;18.40;99.90;;;;;;4988589;28;20642;-69
2021/08/30 12:06:53;;;;;;;4.10;3.80;;;18.30;99.90;;;;;;4996382;28;20731;-69
2021/08/30 12:09:21;;;;;;;5.40;4.87;;;18.30;99.90;;;;;;4997187;28;20441;-69
2021/08/30 12:11:53;;;;;;;4.33;3.97;;;18.20;99.90;;;;;;4996102;28;21114;-70
2021/08/30 12:14:23;;;;;;;5.30;4.90;;;18.20;99.90;;;;;;4996875;28;20444;-70
2021/08/30 12:16:59;;;;;;;5.43;4.97;;;18.30;99.90;;;;;;5000635;28;20435;-68
2021/08/30 12:19:26;;;;;;;5.00;4.50;;;18.60;99.90;;;;;;5001115;28;20459;-69
2021/08/30 12:21:54;;;;;;;5.33;4.47;;;19.00;99.90;;;;;;4994110;28;20789;-70
2021/08/30 12:24:22;;;;;;;6.07;5.47;;;18.90;99.90;;;;;;4991503;28;20412;-70
2021/08/30 12:26:51;;;;;;;5.20;4.80;;;19.10;99.90;;;;;;4983757;28;20465;-68
2021/08/30 12:29:20;;;;;;;5.10;4.70;;;19.40;99.90;;;;;;4998815;28;20671;-70
2021/08/30 12:31:54;;;;;;;7.10;4.83;;;19.40;99.90;;;;;;4992957;28;20448;-69
2021/08/30 12:34:24;;;;;;;8.10;5.27;;;19.60;99.90;;;;;;4983540;28;20411;-69
2021/08/30 12:36:52;;;;;;;6.30;4.63;;;19.90;99.90;;;;;;4986763;28;20508;-69
2021/08/30 12:39:19;;;;;;;6.70;5.67;;;20.10;99.90;;;;;;4994205;28;20648;-70
2021/08/30 12:41:46;;;;;;;5.67;5.17;;;20.10;99.90;;;;;;4990240;28;20472;-69
2021/08/30 12:44:13;;;;;;;7.77;6.43;;;19.90;99.90;;;;;;4999441;28;20440;-71
2021/08/30 12:46:40;;;;;;;6.23;5.27;;;19.70;99.90;;;;;;5000102;28;20418;-70
2021/08/30 12:49:08;;;;;;;7.60;5.90;;;19.50;99.90;;;;;;4985639;28;20613;-69
2021/08/30 12:51:35;;;;;;;6.47;5.67;;;19.70;99.90;;;;;;4984549;28;20454;-70